Latest Weather Observations for Meekatharra

IDW60801

Issued at 7:13 am WST Friday 19 August 2022 (issued every 10 minutes, with the page automatically refreshed every 10 minutes)

About weather observations | Map of weather stations | Latest weather observations for WA | Other Formats
Station Details ID: 007045 Name: MEEKATHARRA AIRPORT Lat: -26.61 Lon: 118.54 Height: 517.0 m
Data from the previous 72 hours. | See also: Recent months at Meekatharra
Date/Time
WST
Temp
°C
App
Temp
°C
Dew
Point
°C
Rel
Hum
%
Delta-T
°C
Wind Press
QNH
hPa
Press
MSL
hPa
Rain since
9am
mm
Dir  Spd
km/h
Gust
km/h
Spd
kts
Gust
kts
19/07:00am 8.5 4.0 -0.3 54 3.5 ESE 13 17 7 9 1028.1 1027.3 0.0
19/06:30am 7.8 3.3 -0.4 56 3.3 ESE 13 17 7 9 1027.7 1026.9 0.0
19/06:00am 8.0 3.5 -0.5 55 3.4 ESE 13 15 7 8 1027.6 1026.7 0.0
19/05:30am 8.1 4.0 -0.4 55 3.4 ESE 11 15 6 8 1027.5 1026.6 0.0
19/05:00am 8.4 3.9 -0.6 53 3.6 ESE 13 17 7 9 1027.1 1026.2 0.0
19/04:30am 8.5 4.0 -0.5 53 3.6 SE 13 17 7 9 1026.9 1026.0 0.0
19/04:00am 8.7 4.2 -0.6 52 3.7 SE 13 20 7 11 1026.9 1026.0 0.0
19/03:30am 8.9 4.3 -0.7 51 3.9 SE 13 19 7 10 1026.9 1026.0 0.0
19/03:00am 9.0 4.0 -0.9 50 4.0 SE 15 19 8 10 1027.0 1026.1 0.0
19/02:30am 9.1 4.1 -1.0 49 4.1 ESE 15 19 8 10 1026.9 1026.0 0.0
19/02:00am 9.2 5.0 -0.9 49 4.0 ESE 11 13 6 7 1026.8 1025.9 0.0
19/01:30am 9.7 5.1 -1.1 47 4.4 ESE 13 20 7 11 1026.8 1025.9 0.0
19/01:00am 10.2 5.2 -1.5 44 4.7 SE 15 22 8 12 1026.8 1025.9 0.0
19/12:30am 10.5 5.1 -1.5 43 4.8 SE 17 24 9 13 1026.9 1026.0 0.0
19/12:00am 10.9 5.4 -1.8 41 5.1 SE 17 20 9 11 1026.9 1026.0 0.0
 
Date/Time
WST
Temp
°C
App
Temp
°C
Dew
Point
°C
Rel
Hum
%
Delta-T
°C
Wind Press
QNH
hPa
Press
MSL
hPa
Rain since
9am
mm
Dir  Spd
km/h
Gust
km/h
Spd
kts
Gust
kts
18/11:30pm 11.2 6.1 -1.9 40 5.3 SE 15 20 8 11 1027.1 1026.2 0.0
18/11:00pm 11.6 6.5 -2.2 38 5.5 ESE 15 20 8 11 1027.2 1026.3 0.0
18/10:30pm 12.1 6.5 -2.5 36 5.8 SE 17 22 9 12 1027.0 1026.1 0.0
18/10:00pm 12.5 7.3 -2.5 35 6.0 SE 15 22 8 12 1026.9 1026.0 0.0
18/09:30pm 12.6 7.5 -2.1 36 6.0 SE 15 19 8 10 1026.6 1025.8 0.0
18/09:00pm 12.9 8.3 -1.1 38 5.8 SE 13 17 7 9 1026.6 1025.8 0.0
18/08:30pm 13.1 8.5 -0.9 38 5.9 SE 13 17 7 9 1026.3 1025.5 0.0
18/08:00pm 13.7 9.5 -1.1 36 6.2 ESE 11 13 6 7 1026.2 1025.4 0.0
18/07:30pm 14.2 10.3 -1.4 34 6.5 ESE 9 11 5 6 1025.9 1025.0 0.0
18/07:00pm 15.4 11.1 -1.6 31 7.1 ESE 11 13 6 7 1025.5 1024.6 0.0
18/06:30pm 16.2 11.4 -2.3 28 7.8 SE 13 20 7 11 1024.9 1024.0 0.0
18/06:00pm 17.0 11.1 -2.6 26 8.2 SE 19 26 10 14 1024.6 1023.8 0.0
18/05:30pm 17.7 11.6 -2.5 25 8.5 SE 20 26 11 14 1024.3 1023.5 0.0
18/05:00pm 18.3 12.1 -3.2 23 9.0 ESE 20 32 11 17 1024.0 1023.1 0.0
18/04:30pm 18.7 12.5 -2.8 23 9.1 ESE 20 33 11 18 1023.9 1023.0 0.0
18/04:00pm 19.0 12.5 -2.6 23 9.2 SE 22 35 12 19 1023.9 1023.0 0.0
18/03:30pm 18.9 11.8 -1.5 25 8.9 ESE 26 33 14 18 1023.9 1023.0 0.0
18/03:00pm 18.5 11.8 -0.8 27 8.5 ESE 24 35 13 19 1024.0 1023.1 0.0
18/02:30pm 19.2 13.1 0.3 28 8.6 ESE 22 35 12 19 1024.0 1023.1 0.0
18/02:00pm 18.7 12.1 -0.2 28 8.4 SE 24 37 13 20 1024.1 1023.2 0.0
18/01:30pm 17.8 10.0 -0.5 29 8.1 SE 30 39 16 21 1024.4 1023.6 0.0
18/01:00pm 17.6 10.7 0.3 31 7.7 SE 26 37 14 20 1024.8 1023.9 0.0
18/12:30pm 16.7 10.3 1.2 35 7.0 SE 24 35 13 19 1025.0 1024.1 0.0
18/12:00pm 15.7 9.9 2.5 41 6.1 SE 22 37 12 20 1025.4 1024.5 0.0
18/11:30am 14.7 9.0 2.9 45 5.4 ESE 22 37 12 20 1025.7 1024.8 0.0
18/11:00am 14.0 8.3 2.9 47 5.1 SE 22 33 12 18 1025.9 1025.0 0.0
18/10:30am 13.2 7.7 3.8 53 4.4 SE 22 32 12 17 1026.0 1025.2 0.0
18/10:00am 12.0 5.4 4.2 59 3.6 SE 28 37 15 20 1026.0 1025.2 0.0
18/09:30am 11.4 5.4 5.1 65 3.0 SSE 26 33 14 18 1025.9 1025.0 0.0
18/09:00am 10.5 5.0 5.7 72 2.3 SE 24 35 13 19 1025.8 1024.9 0.4
18/08:30am 9.6 3.7 5.8 77 1.8 SE 26 37 14 20 1025.6 1024.7 0.4
18/08:26am 9.3 2.9 5.3 76 1.9 SE 28 37 15 20 1025.6 1024.7 0.4
18/08:06am 9.3 3.8 5.7 78 1.7 SE 24 35 13 19 1025.5 1024.6 0.4
18/08:00am 9.0 3.4 5.6 79 1.6 SE 24 35 13 19 1025.4 1024.5 0.4
18/07:30am 8.9 4.3 5.8 81 1.5 SE 19 24 10 13 1024.9 1024.0 0.4
18/07:00am 8.2 4.4 5.8 85 1.1 SSE 15 20 8 11 1024.4 1023.6 0.4
18/06:30am 7.8 4.7 5.6 86 1.0 SE 11 15 6 8 1024.1 1023.2 0.4
18/06:00am 7.9 4.8 5.7 86 1.0 SSE 11 15 6 8 1023.9 1023.0 0.4
18/05:30am 8.1 5.4 5.6 84 1.2 S 9 13 5 7 1023.5 1022.6 0.4
18/05:00am 8.5 5.1 5.8 83 1.3 S 13 17 7 9 1023.3 1022.4 0.4
18/04:30am 8.7 5.3 6.0 83 1.3 S 13 17 7 9 1023.1 1022.2 0.4
18/04:00am 9.1 5.3 5.8 80 1.5 S 15 22 8 12 1022.9 1022.0 0.4
18/03:30am 9.4 6.1 6.5 82 1.4 SSW 13 17 7 9 1022.9 1022.0 0.4
18/03:00am 9.8 5.8 6.5 80 1.6 SSW 17 20 9 11 1022.8 1021.9 0.4
18/02:30am 10.2 5.6 6.5 78 1.8 SSW 20 32 11 17 1022.5 1021.6 0.2
18/02:00am 10.7 5.0 6.6 76 2.0 SSW 26 39 14 21 1022.7 1021.8 0.2
18/01:30am 10.7 6.0 7.6 81 1.5 SSW 22 35 12 19 1022.5 1021.6 0.2
18/01:07am 10.8 4.5 7.3 79 1.7 SSW 30 48 16 26 1022.4 1021.5 0.2
18/01:00am 10.8 4.1 7.5 80 1.6 SSW 32 48 17 26 1022.3 1021.4 0.2
18/12:48am 10.3 3.1 7.7 84 1.3 SSW 35 57 19 31 1022.4 1021.5 0.2
18/12:43am 11.3 5.4 7.4 77 1.9 SSW 28 57 15 31 1022.2 1021.3 0.2
18/12:30am 12.6 7.4 8.9 78 1.9 SW 26 35 14 19 1021.8 1020.9 0.2
18/12:00am 12.9 9.4 10.1 83 1.5 SW 19 30 10 16 1021.6 1020.7 0.2
 
Date/Time
WST
Temp
°C
App
Temp
°C
Dew
Point
°C
Rel
Hum
%
Delta-T
°C
Wind Press
QNH
hPa
Press
MSL
hPa
Rain since
9am
mm
Dir  Spd
km/h
Gust
km/h
Spd
kts
Gust
kts
17/11:30pm 12.8 8.8 10.3 85 1.3 SW 22 30 12 16 1021.4 1020.5 0.2
17/11:06pm 12.4 8.1 10.6 89 1.0 SW 24 35 13 19 1021.5 1020.6 0.2
17/11:00pm 12.4 8.1 10.6 89 1.0 WSW 24 33 13 18 1021.4 1020.5 0.2
17/10:57pm 12.3 8.0 10.7 90 0.9 WSW 24 35 13 19 1021.5 1020.6 0.2
17/10:35pm 12.7 7.3 10.8 88 1.0 WSW 30 44 16 24 1021.4 1020.5 0.2
17/10:34pm 12.8 7.3 10.7 87 1.1 WSW 30 44 16 24 1021.4 1020.5 0.2
17/10:30pm 13.8 9.6 11.0 83 1.5 WSW 24 37 13 20 1021.1 1020.2 0.0
17/10:00pm 14.5 8.5 10.1 75 2.3 WSW 32 50 17 27 1020.8 1019.8 0.0
17/09:59pm 14.6 8.6 10.2 75 2.4 WSW 32 50 17 27 1020.8 1019.8 0.0
17/09:44pm 16.4 10.5 8.9 61 4.0 WSW 30 46 16 25 1020.3 1019.4 0.0
17/09:30pm 17.0 12.2 7.4 53 4.9 W 22 41 12 22 1020.0 1019.1 0.0
17/09:00pm 17.0 12.7 6.8 51 5.2 WNW 19 26 10 14 1019.7 1018.8 0.0
17/08:30pm 17.1 12.7 6.6 50 5.3 WNW 19 28 10 15 1019.5 1018.6 0.0
17/08:00pm 17.1 13.1 6.6 50 5.3 WNW 17 24 9 13 1019.1 1018.1 0.0
17/07:30pm 17.2 13.1 6.4 49 5.5 WNW 17 22 9 12 1019.0 1018.0 0.0
17/07:00pm 17.3 12.9 6.5 49 5.5 WNW 19 24 10 13 1018.8 1017.8 0.0
17/06:30pm 17.6 12.9 6.2 47 5.8 W 20 33 11 18 1018.6 1017.6 0.0
17/06:00pm 17.8 13.3 6.0 46 5.9 W 19 32 10 17 1018.2 1017.3 0.0
17/05:30pm 18.3 12.4 5.8 44 6.3 WNW 26 39 14 21 1017.9 1017.0 0.0
17/05:00pm 19.1 14.0 5.9 42 6.7 W 22 30 12 16 1017.6 1016.7 0.0
17/04:30pm 19.3 12.9 5.0 39 7.1 WNW 28 39 15 21 1017.4 1016.4 0.0
17/04:00pm 19.8 13.3 4.7 37 7.5 W 28 39 15 21 1017.3 1016.3 0.0
17/03:30pm 19.9 14.3 5.2 38 7.4 W 24 35 13 19 1017.2 1016.2 0.0
17/03:00pm 19.8 14.4 6.2 41 7.0 W 24 39 13 21 1017.1 1016.1 0.0
17/02:30pm 20.2 14.6 5.4 38 7.5 WNW 24 37 13 20 1017.1 1016.1 0.0
17/02:00pm 19.8 13.5 5.8 40 7.1 WNW 28 41 15 22 1017.2 1016.2 0.0
17/01:30pm 19.2 13.6 5.6 41 6.9 W 24 39 13 21 1017.5 1016.5 0.0
17/01:00pm 18.6 11.9 5.8 43 6.4 WNW 30 48 16 26 1017.9 1017.0 0.0
17/12:58pm 18.8 12.6 6.3 44 6.4 WNW 28 48 15 26 1017.9 1017.0 0.0
17/12:30pm 18.5 12.5 7.0 47 5.9 WNW 28 41 15 22 1018.6 1017.6 0.0
17/12:00pm 18.4 13.7 7.8 50 5.5 W 22 35 12 19 1019.0 1018.0 0.0
17/11:30am 18.2 13.6 8.2 52 5.3 WNW 22 43 12 23 1019.0 1018.0 0.0
17/11:00am 16.9 12.1 7.3 53 4.9 W 22 32 12 17 1019.4 1018.5 0.0
17/10:30am 16.8 11.6 7.2 53 4.9 WNW 24 35 13 19 1019.8 1018.9 0.0
17/10:00am 16.1 10.9 7.3 56 4.5 WNW 24 35 13 19 1020.1 1019.2 0.0
17/09:30am 15.7 10.8 8.4 62 3.8 W 24 39 13 21 1020.1 1019.2 0.0
17/09:00am 14.9 10.1 7.5 61 3.8 WNW 22 33 12 18 1019.9 1019.0 4.0
17/08:30am 14.2 10.2 8.2 67 3.1 WNW 19 28 10 15 1019.5 1018.6 4.0
17/08:00am 13.7 9.9 9.2 74 2.3 WNW 19 28 10 15 1019.2 1018.2 4.0
17/07:30am 13.1 10.5 9.2 77 2.0 WNW 13 22 7 12 1018.9 1017.9 4.0
17/07:00am 12.6 9.0 8.3 75 2.2 WNW 17 22 9 12 1018.3 1017.4 4.0
17/06:30am 12.6 9.0 8.3 75 2.2 WNW 17 24 9 13 1017.9 1017.0 4.0
17/06:00am 12.9 9.8 10.3 84 1.4 W 17 30 9 16 1017.5 1016.5 4.0
17/05:30am 13.2 10.8 11.4 89 1.0 W 15 26 8 14 1017.1 1016.1 4.0
17/05:00am 13.2 10.9 11.8 91 0.8 W 15 24 8 13 1016.8 1015.8 4.0
17/04:30am 13.1 10.4 11.8 92 0.7 W 17 22 9 12 1016.5 1015.5 3.8
17/04:08am 13.1 10.1 11.8 92 0.7 W 19 26 10 14 1016.2 1015.3 3.8
17/04:00am 13.1 9.1 11.7 91 0.8 W 24 37 13 20 1016.2 1015.3 3.8
17/03:49am 13.3 10.3 12.0 92 0.7 WSW 19 28 10 15 1016.0 1015.1 3.8
17/03:31am 13.4 11.3 12.3 93 0.6 W 15 28 8 15 1015.8 1014.8 3.6
17/03:30am 13.4 11.3 12.3 93 0.6 W 15 24 8 13 1015.8 1014.8 3.6
17/03:17am 13.4 11.3 12.3 93 0.6 W 15 20 8 11 1015.7 1014.7 3.6
17/03:00am 13.4 11.3 12.3 93 0.6 W 15 20 8 11 1015.6 1014.6 3.6
17/02:33am 13.5 11.1 12.6 94 0.5 W 17 26 9 14 1015.7 1014.7 3.6
17/02:30am 13.6 11.2 12.7 94 0.5 W 17 24 9 13 1015.7 1014.7 3.6
17/02:00am 13.7 11.3 12.8 94 0.5 W 17 26 9 14 1015.9 1015.0 3.2
17/01:47am 13.7 10.9 12.6 93 0.6 W 19 26 10 14 1015.8 1014.8 3.2
17/01:39am 13.7 11.3 12.6 93 0.6 W 17 26 9 14 1015.7 1014.7 3.0
17/01:30am 13.7 11.7 12.6 93 0.6 W 15 22 8 12 1015.8 1014.8 3.0
17/01:29am 13.7 11.3 12.6 93 0.6 W 17 22 9 12 1015.8 1014.8 3.0
17/01:13am 13.8 11.4 12.7 93 0.6 W 17 24 9 13 1015.8 1014.8 2.8
17/01:00am 14.1 11.4 13.0 93 0.6 W 19 26 10 14 1015.8 1014.8 0.6
17/12:30am 14.8 12.7 13.5 92 0.7 WSW 17 20 9 11 1015.7 1014.7 0.0
17/12:20am 15.1 12.9 13.3 89 1.0 WSW 17 20 9 11 1015.7 1014.7 0.0
17/12:00am 15.5 13.3 13.2 86 1.3 WSW 17 24 9 13 1015.7 1014.7 0.0
 
Date/Time
WST
Temp
°C
App
Temp
°C
Dew
Point
°C
Rel
Hum
%
Delta-T
°C
Wind Press
QNH
hPa
Press
MSL
hPa
Rain since
9am
mm
Dir  Spd
km/h
Gust
km/h
Spd
kts
Gust
kts
16/11:30pm 15.4 13.2 13.4 88 1.1 WSW 17 22 9 12 1015.8 1014.8 0.0
16/11:01pm 15.1 12.5 13.8 92 0.7 SW 20 30 11 16 1015.7 1014.7 0.0
16/11:00pm 15.1 12.4 13.6 91 0.9 SW 20 30 11 16 1015.7 1014.7 0.0
16/10:41pm 16.2 13.3 14.0 87 1.3 WSW 22 32 12 17 1015.6 1014.6 0.0
16/10:30pm 17.5 15.4 14.6 83 1.7 W 19 28 10 15 1015.5 1014.5 0.0
16/10:00pm 17.3 15.1 14.8 85 1.5 W 20 30 11 16 1015.2 1014.2 0.0
16/09:31pm 18.2 16.0 14.9 81 2.0 W 20 30 11 16 1015.2 1014.2 0.0
16/09:30pm 18.2 16.0 14.9 81 2.0 W 20 30 11 16 1015.2 1014.2 0.0
16/09:00pm 18.8 16.8 14.9 78 2.3 W 19 26 10 14 1015.0 1014.0 0.0
16/08:30pm 19.5 17.3 15.0 75 2.7 W 20 30 11 16 1014.9 1013.9 0.0
16/08:00pm 19.6 16.3 15.0 75 2.8 W 26 39 14 21 1014.8 1013.8 0.0
16/07:30pm 20.9 17.7 15.4 71 3.3 WNW 26 37 14 20 1014.3 1013.4 0.0
16/07:00pm 21.3 18.9 15.4 69 3.6 WNW 22 35 12 19 1013.8 1012.8 0.0
16/06:30pm 21.3 18.1 15.4 69 3.6 WNW 26 43 14 23 1013.8 1012.8 0.0
16/06:00pm 21.5 19.4 15.1 67 3.9 WNW 20 26 11 14 1013.3 1012.3 0.0
16/05:30pm 21.8 19.2 14.9 65 4.2 WNW 22 32 12 17 1013.2 1012.2 0.0
16/05:00pm 22.4 19.6 15.3 64 4.3 WNW 24 35 13 19 1013.0 1012.0 0.0
16/04:30pm 23.2 19.6 15.3 61 4.8 WNW 28 41 15 22 1012.8 1011.8 0.0
16/04:00pm 23.4 19.8 15.2 60 5.0 WNW 28 43 15 23 1012.8 1011.8 0.0
16/03:30pm 23.3 19.4 15.4 61 4.8 WNW 30 39 16 21 1012.7 1011.7 0.0
16/03:00pm 24.9 20.8 15.0 54 6.1 WNW 30 43 16 23 1012.5 1011.4 0.0
16/02:31pm 24.6 20.6 14.1 52 6.3 WNW 28 46 15 25 1012.4 1011.3 0.0
16/02:30pm 24.8 20.9 14.3 52 6.4 WNW 28 41 15 22 1012.4 1011.3 0.0
16/02:00pm 25.5 21.0 13.7 48 7.1 WNW 30 48 16 26 1012.2 1011.2 0.0
16/01:57pm 25.5 20.3 13.4 47 7.2 WNW 33 59 18 32 1012.2 1011.2 0.0
16/01:30pm 27.9 19.6 9.2 31 10.6 NW 43 61 23 33 1011.9 1010.9 0.0
16/01:00pm 28.1 18.5 7.9 28 11.2 NW 48 74 26 40 1012.2 1011.2 0.0
16/12:30pm 28.4 19.6 8.1 28 11.3 NW 44 63 24 34 1012.5 1011.4 0.0
16/12:02pm 28.0 19.8 8.3 29 11.0 NW 41 61 22 33 1012.9 1011.9 0.0
16/12:00pm 28.1 19.9 8.4 29 11.0 NW 41 57 22 31 1012.9 1011.9 0.0
16/11:30am 26.6 17.8 8.1 31 10.2 NW 44 63 24 34 1013.3 1012.3 0.0
16/11:09am 26.6 19.1 8.1 31 10.2 NW 37 56 20 30 1013.7 1012.7 0.0
16/11:00am 26.8 18.2 8.3 31 10.2 NW 43 57 23 31 1013.9 1012.9 0.0
16/10:39am 26.8 18.2 8.3 31 10.2 NNW 43 61 23 33 1013.9 1012.9 0.0
16/10:30am 27.0 19.4 8.9 32 10.1 NNW 39 52 21 28 1014.0 1013.0 0.0
16/10:06am 25.8 18.0 8.3 33 9.6 NW 39 57 21 31 1014.2 1013.3 0.0
16/10:00am 25.4 17.2 8.0 33 9.5 NNW 41 57 22 31 1014.3 1013.4 0.0
16/09:30am 24.6 16.0 8.1 35 9.0 NW 43 65 23 35 1014.3 1013.4 0.0
16/09:00am 23.9 16.0 7.9 36 8.7 NNW 39 61 21 33 1014.6 1013.6 0.0
16/08:40am 23.6 15.8 8.1 37 8.4 NNW 39 57 21 31 1014.5 1013.5 0.0
16/08:30am 23.3 15.8 7.8 37 8.3 NNW 37 50 20 27 1014.3 1013.4 0.0
16/08:00am 22.7 15.5 7.7 38 8.0 NNW 35 46 19 25 1014.2 1013.3 0.0
16/07:30am 22.4 15.8 7.8 39 7.8 NNW 32 44 17 24 1014.0 1013.0 0.0

Other formats

Comma delimited format used in spreadsheet applications
http://www.bom.gov.au/fwo/IDW60801/IDW60801.94430.axf

JavaScript Object Notation format (JSON) in row-major order
http://www.bom.gov.au/fwo/IDW60801/IDW60801.94430.json

Data quality

Most of these data are generated automatically and are frequently updated. Quality checks on data are not normally performed. It is possible for incorrect values to appear. Refer to information at About Latest Weather Observations and please check the disclaimer before using these data.